Alexandria, OH (43001)

5:20 PM EDT on September 01, 2015 (GMT -0400)
Granville South | | Change Station
CLOSE
Current Station
Personal Weather Station
Location: Granville, OH
Elevation: 1060 ft
Nearby Weather Stations

Elev 1060 ft 40.05 °N, 82.57 °W | Updated 23 seconds ago

Partly Cloudy
Partly Cloudy
85.5 °F
Feels Like 90 °F
N
0.0
Wind Variable Wind from ENE
Gusts 0.0 mph

Today
High -- | Low -- °F
--% Chance of Precip.
Yesterday
High -- | Low -- °F
Precip. -- in
6:57 AM 8:02 PM
Waning Gibbous, 86% visible
Pressure 30.06 in
Visibility 10.0 miles
Clouds Clear
Heat Index 90 °F
Dew Point 70 °F
Humidity 59%
Rainfall 0.00 in
Snow Depth Not available.
UV 4 out of 12
Pollen 10.60 out of 12
Air Quality Not available.
Flu Activity Not available.
METAR KVTA 012054Z AUTO 00000KT 10SM CLR 30/19 A3008 RMK AO2 SLP178 T03000189 56014
Pressure 30.06 in
Visibility 10.0 miles
Clouds Clear
Heat Index 90 °F
Dew Point 70 °F
Humidity 59%
Rainfall 0.00 in
Snow Depth Not available.
UV 4 out of 12
Pollen 10.60 out of 12
Air Quality Not available.
Flu Activity Not available.
METAR KVTA 012054Z AUTO 00000KT 10SM CLR 30/19 A3008 RMK AO2 SLP178 T03000189 56014

10-Day Weather Forecast

×

Almanac

Astronomy

Sep. 01, 2015 Rise Set
Actual Time
Civil Twilight
Nautical Twilight
Astronomical Twilight
Moon
Length of Visible Light
Length of Day
Tomorrow will be .
, % of the Moon is Illuminated

Today's Extremes

State Highs State Lows

Community

WunderPhotos

Upload Photos

1,851,626 photos uploaded!

WunderBlogs® & News

Nearby

Air Quality

  Air Quality AQ Index Pollutant
Not available.

Snow Depth

Station Depth Elevation

Earthquake Activity

City Distance Mag. Time & Date
Minimum magnitude displayed is 2.5.

Coastal Water Temperatures

Place Temperature

Stations

Nearby Weather Stations

Station Location Temp. Windchill Dew Point Humidity Wind Precip. Elev Updated Type